Time;durP1;ratioP1;P1;durP2;ratioP2;P2;SDS_P1;SDS_P2;PMS_P1;PMS_P2;Temp;Humidity;BMP_temperature;BMP_pressure;BME280_temperature;BME280_humidity;BME280_pressure;Samples;Min_cycle;Max_cycle;Signal;HPM_P1;HPM_P2
2022/12/29 00:02:04;;;;;;;;;;;;;;;11.61;100.00;99837.44;2614987;36;19953;-60
2022/12/29 00:04:32;;;;;;;;;;;;;;;11.58;100.00;99838.59;2614451;36;19957;-59
2022/12/29 00:07:01;;;;;;;;;;;;;;;11.56;100.00;99819.91;2613964;36;19951;-60
2022/12/29 00:09:29;;;;;;;;;;;;;;;11.59;100.00;99818.75;2614957;36;19942;-61
2022/12/29 00:12:00;;;;;;;;;;;;;;;11.64;100.00;99810.13;2615534;36;20358;-60
2022/12/29 00:17:09;;;;;;;;;;;;;;;11.64;100.00;99812.84;2614793;36;20059;-60
2022/12/29 00:35:54;;;;;;;;;;;;;;;11.58;100.00;99769.38;2614974;36;19939;-59
2022/12/29 00:46:27;;;;;;;;;;;;;;;11.84;100.00;99762.13;2613565;36;19974;-60
2022/12/29 00:51:36;;;;;;;;;;;;;;;11.83;100.00;99753.16;2616266;31;20498;-61
2022/12/29 00:54:04;;;;;;;;;;;;;;;11.81;100.00;99755.19;2615527;31;19985;-60
2022/12/29 00:56:32;;;;;;;;;;;;;;;11.94;100.00;99753.84;2613785;36;19951;-60
2022/12/29 00:59:05;;;;;;;;;;;;;;;11.74;100.00;99741.56;2615293;36;20337;-59
2022/12/29 01:01:34;;;;;;;;;;;;;;;11.95;100.00;99736.66;2616023;36;20019;-61
2022/12/29 01:04:02;;;;;;;;;;;;;;;11.82;100.00;99727.25;2613512;36;19946;-60
2022/12/29 01:06:30;;;;;;;;;;;;;;;11.82;100.00;99737.16;2613928;36;20339;-59
2022/12/29 01:11:38;;;;;;;;;;;;;;;11.82;100.00;99715.59;2612029;36;19954;-59
2022/12/29 01:14:09;;;;;;;;;;;;;;;11.79;100.00;99722.16;2611992;36;19953;-60
2022/12/29 01:16:38;;;;;;;;;;;;;;;11.84;100.00;99724.38;2612212;36;19957;-59
2022/12/29 01:19:06;;;;;;;;;;;;;;;11.79;100.00;99714.06;2613505;36;20069;-60
2022/12/29 01:21:35;;;;;;;;;;;;;;;11.94;100.00;99716.09;2612755;36;19957;-60
2022/12/29 01:24:03;;;;;;;;;;;;;;;11.83;100.00;99712.72;2611493;36;20397;-59
2022/12/29 01:26:31;;;;;;;;;;;;;;;11.85;100.00;99707.16;2616253;31;19950;-58
2022/12/29 01:28:59;;;;;;;;;;;;;;;11.86;100.00;99701.59;2612746;36;19939;-60
2022/12/29 01:31:30;;;;;;;;;;;;;;;11.81;100.00;99705.84;2612004;36;19946;-59
2022/12/29 01:33:58;;;;;;;;;;;;;;;11.74;100.00;99703.00;2613298;36;19954;-59
2022/12/29 01:36:26;;;;;;;;;;;;;;;11.73;100.00;99712.94;2613507;36;19950;-59
2022/12/29 01:38:55;;;;;;;;;;;;;;;11.71;100.00;99697.94;2612199;36;19958;-59
2022/12/29 01:41:23;;;;;;;;;;;;;;;11.57;100.00;99707.56;2613195;36;19955;-61
2022/12/29 01:43:53;;;;;;;;;;;;;;;11.50;100.00;99707.41;2613056;31;19946;-60
2022/12/29 01:46:26;;;;;;;;;;;;;;;11.33;100.00;99711.13;2612152;36;19958;-59
2022/12/29 01:49:00;;;;;;;;;;;;;;;11.33;100.00;99711.13;2614283;31;20392;-60
2022/12/29 01:51:29;;;;;;;;;;;;;;;11.20;100.00;99708.94;2615479;31;19950;-60
2022/12/29 01:53:58;;;;;;;;;;;;;;;11.12;100.00;99715.16;2611689;36;19947;-61
2022/12/29 01:56:28;;;;;;;;;;;;;;;11.29;100.00;99709.78;2611000;36;19950;-61
2022/12/29 01:58:58;;;;;;;;;;;;;;;11.21;100.00;99722.22;2613308;36;20086;-61
2022/12/29 02:01:26;;;;;;;;;;;;;;;11.24;100.00;99718.38;2615322;36;19954;-61
2022/12/29 02:03:57;;;;;;;;;;;;;;;11.24;100.00;99729.16;2613696;31;19950;-60
2022/12/29 02:06:26;;;;;;;;;;;;;;;11.25;100.00;99732.66;2615037;31;19938;-59
2022/12/29 02:08:55;;;;;;;;;;;;;;;11.20;100.00;99739.44;2616060;36;19938;-61
2022/12/29 02:11:25;;;;;;;;;;;;;;;11.25;100.00;99749.69;2615930;36;19953;-61
2022/12/29 02:13:54;;;;;;;;;;;;;;;11.21;100.00;99729.47;2613843;36;20481;-61
2022/12/29 02:16:34;;;;;;;;;;;;;;;11.29;100.00;99731.31;2615405;36;19950;-60
2022/12/29 02:19:15;;;;;;;;;;;;;;;11.28;100.00;99735.03;2615755;31;19958;-61
2022/12/29 02:21:58;;;;;;;;;;;;;;;11.22;100.00;99720.41;2615218;36;19939;-61
2022/12/29 02:24:44;;;;;;;;;;;;;;;11.26;100.00;99737.06;2615569;31;20375;-60
2022/12/29 02:27:26;;;;;;;;;;;;;;;11.47;100.00;99729.31;2613974;36;19981;-61
2022/12/29 02:30:12;;;;;;;;;;;;;;;11.31;100.00;99734.72;2614857;36;19950;-59
2022/12/29 02:32:48;;;;;;;;;;;;;;;11.44;100.00;99732.34;2613253;31;19950;-59
2022/12/29 02:35:22;;;;;;;;;;;;;;;11.32;100.00;99730.97;2613592;36;20305;-61
2022/12/29 02:37:57;;;;;;;;;;;;;;;11.36;100.00;99724.25;2612508;36;19954;-60
2022/12/29 02:40:27;;;;;;;;;;;;;;;11.50;100.00;99728.97;2611825;36;19978;-60
2022/12/29 02:43:01;;;;;;;;;;;;;;;11.54;100.00;99722.22;2612831;36;19969;-60
2022/12/29 02:45:33;;;;;;;;;;;;;;;11.40;100.00;99725.59;2611886;36;20435;-59
2022/12/29 02:48:06;;;;;;;;;;;;;;;11.47;100.00;99734.69;2612816;31;19953;-60
2022/12/29 02:50:36;;;;;;;;;;;;;;;11.42;100.00;99720.88;2611871;36;19957;-59
2022/12/29 02:53:06;;;;;;;;;;;;;;;11.55;100.00;99726.59;2612475;36;19951;-60
2022/12/29 02:55:32;;;;;;;;;;;;;;;11.37;100.00;99712.47;2612682;36;19955;-59
2022/12/29 02:58:24;;;;;;;;;;;;;;;11.45;100.00;99711.63;2614485;36;20038;-61
2022/12/29 03:00:58;;;;;;;;;;;;;;;11.57;100.00;99707.56;2612367;31;19946;-61
2022/12/29 03:03:39;;;;;;;;;;;;;;;11.63;100.00;99712.28;2609524;36;19973;-60
2022/12/29 03:06:14;;;;;;;;;;;;;;;11.57;100.00;99713.81;2611543;31;19961;-60
2022/12/29 03:08:47;;;;;;;;;;;;;;;11.50;100.00;99718.19;2612681;36;19950;-59
2022/12/29 03:16:46;;;;;;;;;;;;;;;11.31;100.00;99702.38;2608029;36;19954;-59
2022/12/29 03:19:19;;;;;;;;;;;;;;;11.32;100.00;99706.75;2605329;36;19953;-60
2022/12/29 03:24:32;;;;;;;;;;;;;;;11.39;100.00;99688.88;2606301;36;19951;-59
2022/12/29 03:27:02;;;;;;;;;;;;;;;11.27;100.00;99687.56;2606372;36;19950;-59
2022/12/29 03:29:32;;;;;;;;;;;;;;;11.25;100.00;99700.34;2611936;36;19953;-58
2022/12/29 03:32:02;;;;;;;;;;;;;;;11.36;100.00;99700.00;2611174;36;19950;-60
2022/12/29 03:34:33;;;;;;;;;;;;;;;11.25;100.00;99703.03;2611137;36;19954;-58
2022/12/29 03:37:05;;;;;;;;;;;;;;;11.19;100.00;99699.19;2610315;31;19957;-60
2022/12/29 03:39:33;;;;;;;;;;;;;;;11.30;100.00;99701.53;2611954;36;19961;-59
2022/12/29 03:42:04;;;;;;;;;;;;;;;11.30;100.00;99706.09;2612562;31;19954;-60
2022/12/29 03:44:36;;;;;;;;;;;;;;;11.28;100.00;99708.09;2611669;31;19950;-59
2022/12/29 03:47:04;;;;;;;;;;;;;;;11.19;100.00;99716.19;2613936;36;19962;-60
2022/12/29 03:49:35;;;;;;;;;;;;;;;11.05;100.00;99712.28;2610980;31;19951;-59
2022/12/29 03:52:03;;;;;;;;;;;;;;;11.14;100.00;99694.28;2610244;36;19958;-61
2022/12/29 03:54:31;;;;;;;;;;;;;;;11.05;100.00;99698.81;2611471;36;19982;-59
2022/12/29 03:56:59;;;;;;;;;;;;;;;11.10;100.00;99694.78;2614139;36;19954;-59
2022/12/29 03:59:27;;;;;;;;;;;;;;;11.05;100.00;99698.81;2611303;36;19973;-61
2022/12/29 04:01:55;;;;;;;;;;;;;;;11.18;100.00;99692.13;2611335;31;19950;-60
2022/12/29 04:04:23;;;;;;;;;;;;;;;11.01;100.00;99696.66;2611527;36;20454;-59
2022/12/29 04:06:54;;;;;;;;;;;;;;;11.06;100.00;99694.31;2610924;36;19938;-60
2022/12/29 04:09:22;;;;;;;;;;;;;;;11.01;100.00;99691.25;2611267;36;19950;-60
2022/12/29 04:11:50;;;;;;;;;;;;;;;10.90;100.00;99705.91;2611902;36;20605;-60
2022/12/29 04:14:18;;;;;;;;;;;;;;;10.90;100.00;99710.44;2611690;36;20706;-60
2022/12/29 04:16:46;;;;;;;;;;;;;;;10.93;100.00;99696.66;2611721;36;19958;-59
2022/12/29 04:19:14;;;;;;;;;;;;;;;10.93;100.00;99704.72;2611020;36;19957;-60
2022/12/29 04:21:42;;;;;;;;;;;;;;;10.87;100.00;99715.16;2613330;36;19950;-59
2022/12/29 04:24:13;;;;;;;;;;;;;;;11.00;100.00;99717.34;2612345;36;19954;-60
2022/12/29 04:26:41;;;;;;;;;;;;;;;11.09;100.00;99723.59;2610825;36;19950;-59
2022/12/29 04:29:09;;;;;;;;;;;;;;;11.09;100.00;99737.06;2614587;36;19957;-59
2022/12/29 04:31:37;;;;;;;;;;;;;;;11.10;100.00;99725.28;2612453;36;19950;-61
2022/12/29 04:34:06;;;;;;;;;;;;;;;11.11;100.00;99724.25;2611808;36;19950;-60
2022/12/29 04:36:34;;;;;;;;;;;;;;;11.12;100.00;99730.50;2610965;36;19950;-60
2022/12/29 04:39:02;;;;;;;;;;;;;;;11.12;100.00;99734.03;2612205;36;20566;-60
2022/12/29 04:41:33;;;;;;;;;;;;;;;11.10;100.00;99722.59;2612380;31;20425;-60
2022/12/29 04:44:01;;;;;;;;;;;;;;;10.97;100.00;99716.84;2611724;36;19970;-60
2022/12/29 04:46:29;;;;;;;;;;;;;;;10.96;100.00;99717.84;2612694;36;19946;-60
2022/12/29 04:48:57;;;;;;;;;;;;;;;10.90;100.00;99718.53;2614004;36;20358;-59
2022/12/29 04:51:25;;;;;;;;;;;;;;;11.02;100.00;99725.25;2612326;36;19947;-60
2022/12/29 04:53:53;;;;;;;;;;;;;;;11.01;100.00;99731.66;2613584;36;20335;-59
2022/12/29 04:56:21;;;;;;;;;;;;;;;11.01;100.00;99734.34;2614236;36;19939;-59
2022/12/29 04:58:52;;;;;;;;;;;;;;;10.96;100.00;99728.63;2615050;36;19946;-59
2022/12/29 05:01:20;;;;;;;;;;;;;;;10.92;100.00;99724.56;2616099;36;20367;-59
2022/12/29 05:03:48;;;;;;;;;;;;;;;11.01;100.00;99728.94;2615178;36;19957;-59
2022/12/29 05:06:16;;;;;;;;;;;;;;;10.94;100.00;99733.31;2615783;36;19958;-58
2022/12/29 05:08:44;;;;;;;;;;;;;;;10.87;100.00;99719.69;2616065;36;19954;-59
2022/12/29 05:11:12;;;;;;;;;;;;;;;10.84;100.00;99731.63;2614709;36;19951;-59
2022/12/29 05:13:40;;;;;;;;;;;;;;;10.81;100.00;99733.81;2614569;36;19950;-59
2022/12/29 05:16:11;;;;;;;;;;;;;;;10.72;100.00;99730.28;2615921;36;20357;-59
2022/12/29 05:18:39;;;;;;;;;;;;;;;10.80;100.00;99738.34;2615452;36;19970;-59
2022/12/29 05:21:07;;;;;;;;;;;;;;;10.71;100.00;99739.34;2616170;31;19953;-60
2022/12/29 05:23:35;;;;;;;;;;;;;;;10.67;100.00;99737.97;2614785;36;19962;-59
2022/12/29 05:26:04;;;;;;;;;;;;;;;10.67;100.00;99730.78;2612050;36;19950;-61
2022/12/29 05:28:32;;;;;;;;;;;;;;;10.69;100.00;99741.38;2612874;36;19950;-59
2022/12/29 05:31:00;;;;;;;;;;;;;;;10.77;100.00;99738.69;2613697;31;20323;-58
2022/12/29 05:33:30;;;;;;;;;;;;;;;10.71;100.00;99743.91;2611916;36;19969;-59
2022/12/29 05:35:58;;;;;;;;;;;;;;;10.65;100.00;99756.16;2610876;36;19953;-59
2022/12/29 05:38:26;;;;;;;;;;;;;;;10.71;100.00;99750.09;2613299;36;20526;-61
2022/12/29 05:40:55;;;;;;;;;;;;;;;10.62;100.00;99749.25;2611793;36;19957;-60
2022/12/29 05:43:23;;;;;;;;;;;;;;;10.42;100.00;99755.91;2612909;31;19946;-59
2022/12/29 05:45:51;;;;;;;;;;;;;;;10.43;100.00;99741.44;2612483;36;19946;-59
2022/12/29 05:48:19;;;;;;;;;;;;;;;10.49;100.00;99749.69;2612619;32;19950;-59
2022/12/29 05:50:52;;;;;;;;;;;;;;;10.47;100.00;99759.78;2611299;36;20430;-59
2022/12/29 05:53:21;;;;;;;;;;;;;;;10.50;100.00;99764.00;2612414;36;20424;-61
2022/12/29 05:55:49;;;;;;;;;;;;;;;10.50;100.00;99764.84;2611394;31;19957;-60
2022/12/29 05:58:18;;;;;;;;;;;;;;;10.41;100.00;99792.72;2612270;31;19950;-59
2022/12/29 06:00:46;;;;;;;;;;;;;;;10.33;100.00;99773.81;2611681;36;19954;-60
2022/12/29 06:03:14;;;;;;;;;;;;;;;10.36;100.00;99786.97;2612388;36;19957;-58
2022/12/29 06:05:42;;;;;;;;;;;;;;;10.35;100.00;99788.00;2613140;36;20324;-60
2022/12/29 06:08:13;;;;;;;;;;;;;;;10.26;100.00;99784.38;2611717;36;19950;-59
2022/12/29 06:10:41;;;;;;;;;;;;;;;10.16;100.00;99789.88;2612421;36;19962;-59
2022/12/29 06:13:09;;;;;;;;;;;;;;;10.07;100.00;99788.16;2611804;36;20514;-58
2022/12/29 06:15:37;;;;;;;;;;;;;;;10.05;100.00;99782.06;2612647;36;19951;-60
2022/12/29 06:18:05;;;;;;;;;;;;;;;10.10;100.00;99779.78;2612020;31;19950;-59
2022/12/29 06:20:33;;;;;;;;;;;;;;;10.16;100.00;99794.41;2610842;36;19947;-60
2022/12/29 06:23:01;;;;;;;;;;;;;;;10.15;100.00;99787.34;2611430;31;19950;-59
2022/12/29 06:25:33;;;;;;;;;;;;;;;10.20;100.00;99787.69;2612360;36;19950;-59
2022/12/29 06:28:02;;;;;;;;;;;;;;;10.20;100.00;99774.25;2613559;31;20431;-59
2022/12/29 06:30:30;;;;;;;;;;;;;;;10.13;100.00;99784.00;2611689;36;20432;-59
2022/12/29 06:32:58;;;;;;;;;;;;;;;10.26;100.00;99770.94;2614988;36;20024;-59
2022/12/29 06:35:26;;;;;;;;;;;;;;;10.32;100.00;99785.56;2614302;36;19958;-58
2022/12/29 06:37:54;;;;;;;;;;;;;;;10.28;100.00;99785.06;2615462;36;19943;-58
2022/12/29 06:40:22;;;;;;;;;;;;;;;10.41;100.00;99787.34;2610262;36;19946;-59
2022/12/29 06:42:53;;;;;;;;;;;;;;;10.26;100.00;99788.91;2611424;36;19947;-60
2022/12/29 06:45:22;;;;;;;;;;;;;;;10.35;100.00;99796.06;2612383;31;19957;-60
2022/12/29 06:47:50;;;;;;;;;;;;;;;10.26;100.00;99802.34;2612088;36;19950;-59
2022/12/29 06:50:18;;;;;;;;;;;;;;;10.20;100.00;99819.13;2612590;36;19951;-59
2022/12/29 06:52:46;;;;;;;;;;;;;;;10.27;100.00;99806.75;2611027;36;19947;-59
2022/12/29 06:55:14;;;;;;;;;;;;;;;10.13;100.00;99819.78;2614520;36;19950;-59
2022/12/29 06:57:42;;;;;;;;;;;;;;;10.10;100.00;99812.03;2614913;36;19954;-59
2022/12/29 07:00:14;;;;;;;;;;;;;;;10.07;100.00;99823.09;2614458;36;19954;-59
2022/12/29 07:02:42;;;;;;;;;;;;;;;10.00;100.00;99814.81;2613397;36;19953;-60
2022/12/29 07:05:10;;;;;;;;;;;;;;;10.02;100.00;99824.56;2614672;36;19938;-59
2022/12/29 07:07:38;;;;;;;;;;;;;;;10.14;100.00;99826.84;2615009;36;19958;-58
2022/12/29 07:10:07;;;;;;;;;;;;;;;9.97;100.00;99823.19;2614859;36;19954;-58
2022/12/29 07:12:35;;;;;;;;;;;;;;;10.06;100.00;99825.94;2614864;36;19957;-59
2022/12/29 07:15:03;;;;;;;;;;;;;;;10.07;100.00;99823.09;2615743;36;19939;-59
2022/12/29 07:17:34;;;;;;;;;;;;;;;10.06;100.00;99820.56;2615333;36;19946;-59
2022/12/29 07:20:02;;;;;;;;;;;;;;;10.05;100.00;99813.50;2613843;36;19950;-59
2022/12/29 07:22:30;;;;;;;;;;;;;;;10.12;100.00;99814.56;2614654;31;19951;-60
2022/12/29 07:24:58;;;;;;;;;;;;;;;10.20;100.00;99827.19;2615808;36;20324;-58
2022/12/29 07:27:26;;;;;;;;;;;;;;;10.19;100.00;99834.44;2614754;36;19958;-58
2022/12/29 07:29:54;;;;;;;;;;;;;;;10.30;100.00;99828.75;2612895;36;19958;-59
2022/12/29 07:32:22;;;;;;;;;;;;;;;10.17;100.00;99806.84;2610336;36;19950;-59
2022/12/29 07:34:53;;;;;;;;;;;;;;;10.10;100.00;99835.38;2611646;36;19954;-58
2022/12/29 07:37:21;;;;;;;;;;;;;;;10.09;100.00;99834.53;2610652;36;19955;-59
2022/12/29 07:39:49;;;;;;;;;;;;;;;9.99;100.00;99834.63;2611318;36;19950;-59
2022/12/29 07:42:17;;;;;;;;;;;;;;;9.99;100.00;99831.94;2612058;36;19954;-59
2022/12/29 07:44:45;;;;;;;;;;;;;;;9.84;100.00;99828.16;2611354;36;19951;-60
2022/12/29 07:47:13;;;;;;;;;;;;;;;9.85;100.00;99834.34;2610736;36;19947;-58
2022/12/29 07:49:41;;;;;;;;;;;;;;;9.92;100.00;99832.72;2611726;31;19947;-59
2022/12/29 07:52:12;;;;;;;;;;;;;;;9.82;100.00;99836.38;2611885;36;19981;-58
2022/12/29 07:54:40;;;;;;;;;;;;;;;9.93;100.00;99831.75;2611566;36;20310;-59
2022/12/29 07:57:08;;;;;;;;;;;;;;;9.90;100.00;99838.25;2611681;36;20382;-59
2022/12/29 07:59:37;;;;;;;;;;;;;;;9.83;100.00;99837.19;2611864;36;19954;-59
2022/12/29 08:02:05;;;;;;;;;;;;;;;9.92;100.00;99828.22;2611305;31;19947;-58
2022/12/29 08:04:33;;;;;;;;;;;;;;;9.91;100.00;99841.78;2611036;36;19954;-59
2022/12/29 08:07:01;;;;;;;;;;;;;;;9.92;100.00;99838.09;2611404;36;19977;-59
2022/12/29 08:09:31;;;;;;;;;;;;;;;9.89;100.00;99831.19;2611575;36;19950;-59
2022/12/29 08:12:00;;;;;;;;;;;;;;;9.85;100.00;99835.22;2611796;36;20412;-59
2022/12/29 08:14:28;;;;;;;;;;;;;;;9.84;100.00;99821.94;2611154;36;19958;-60
2022/12/29 08:16:56;;;;;;;;;;;;;;;9.82;100.00;99828.31;2612242;36;19954;-59
2022/12/29 08:19:24;;;;;;;;;;;;;;;9.89;100.00;99827.66;2609878;36;19957;-58
2022/12/29 08:21:52;;;;;;;;;;;;;;;9.81;100.00;99826.59;2612040;36;19950;-58
2022/12/29 08:24:20;;;;;;;;;;;;;;;9.93;100.00;99821.81;2612700;36;19950;-57
2022/12/29 08:26:51;;;;;;;;;;;;;;;9.93;100.00;99823.69;2612454;36;19957;-59
2022/12/29 08:29:19;;;;;;;;;;;;;;;9.89;100.00;99822.28;2613651;36;19946;-59
2022/12/29 08:31:47;;;;;;;;;;;;;;;10.02;100.00;99827.25;2612707;36;19981;-59
2022/12/29 08:34:15;;;;;;;;;;;;;;;9.95;100.00;99827.91;2612751;36;19954;-59
2022/12/29 08:36:44;;;;;;;;;;;;;;;10.07;100.00;99841.06;2613369;36;19950;-59
2022/12/29 08:39:12;;;;;;;;;;;;;;;10.31;100.00;99832.31;2613232;36;19979;-58
2022/12/29 08:41:40;;;;;;;;;;;;;;;10.29;100.00;99831.63;2613173;36;19953;-59
2022/12/29 08:44:10;;;;;;;;;;;;;;;10.37;100.00;99837.09;2612696;31;19950;-59
2022/12/29 08:46:39;;;;;;;;;;;;;;;10.30;100.00;99836.00;2612743;36;19953;-58
2022/12/29 08:49:07;;;;;;;;;;;;;;;10.34;100.00;99832.03;2613537;31;19951;-60
2022/12/29 08:51:35;;;;;;;;;;;;;;;10.30;100.00;99836.84;2613671;36;19950;-58
2022/12/29 08:54:03;;;;;;;;;;;;;;;10.31;100.00;99835.00;2614363;36;19946;-58
2022/12/29 08:56:34;;;;;;;;;;;;;;;10.21;100.00;99834.28;2616940;54;19958;-59
2022/12/29 08:59:02;;;;;;;;;;;;;;;10.37;100.00;99839.78;2616294;36;19939;-59
2022/12/29 09:01:36;;;;;;;;;;;;;;;10.37;100.00;99845.16;2616081;36;19957;-60
2022/12/29 09:04:04;;;;;;;;;;;;;;;10.28;100.00;99863.06;2615983;31;19950;-59
2022/12/29 09:06:32;;;;;;;;;;;;;;;10.30;100.00;99850.28;2616307;36;19977;-60
2022/12/29 09:09:00;;;;;;;;;;;;;;;10.31;100.00;99846.59;2616533;31;19950;-58
2022/12/29 09:11:28;;;;;;;;;;;;;;;10.45;100.00;99858.66;2616398;36;19965;-58
2022/12/29 09:13:57;;;;;;;;;;;;;;;10.44;100.00;99856.13;2614561;36;19946;-60
2022/12/29 09:16:26;;;;;;;;;;;;;;;10.36;100.00;99840.75;2614955;36;19947;-59
2022/12/29 09:18:57;;;;;;;;;;;;;;;10.37;100.00;99853.22;2614768;36;19939;-60
2022/12/29 09:21:25;;;;;;;;;;;;;;;10.37;100.00;99850.53;2615662;36;19954;-60
2022/12/29 09:23:53;;;;;;;;;;;;;;;10.37;100.00;99844.31;2615083;36;19951;-59
2022/12/29 09:26:21;;;;;;;;;;;;;;;10.34;100.00;99869.69;2613772;31;19977;-60
2022/12/29 09:28:49;;;;;;;;;;;;;;;10.30;100.00;99877.19;2629899;36;19947;-59
2022/12/29 09:31:18;;;;;;;;;;;;;;;10.44;100.00;99866.88;2614284;36;19950;-59
2022/12/29 09:33:46;;;;;;;;;;;;;;;10.37;100.00;99881.97;2615434;31;19950;-59
2022/12/29 09:36:17;;;;;;;;;;;;;;;10.21;100.00;99869.22;2614706;36;19958;-58
2022/12/29 09:38:45;;;;;;;;;;;;;;;10.20;100.00;99894.44;2615788;36;19950;-58
2022/12/29 09:41:16;;;;;;;;;;;;;;;10.09;100.00;99879.41;2614339;36;19946;-59
2022/12/29 09:43:49;;;;;;;;;;;;;;;9.84;100.00;99875.69;2615058;36;19950;-59
2022/12/29 09:46:21;;;;;;;;;;;;;;;9.91;100.00;99904.47;2614131;36;19951;-60
2022/12/29 09:48:52;;;;;;;;;;;;;;;9.99;100.00;99917.13;2615148;36;20082;-58
2022/12/29 09:51:25;;;;;;;;;;;;;;;9.96;100.00;99933.56;2612854;36;19953;-58
2022/12/29 09:53:54;;;;;;;;;;;;;;;9.88;100.00;99928.09;2614670;36;19958;-58
2022/12/29 09:56:24;;;;;;;;;;;;;;;9.93;100.00;99933.88;2613883;31;19947;-60
2022/12/29 09:58:54;;;;;;;;;;;;;;;9.78;100.00;99937.09;2616464;36;20437;-59
2022/12/29 10:01:26;;;;;;;;;;;;;;;9.76;100.00;99933.75;2614636;36;19953;-59
2022/12/29 10:03:55;;;;;;;;;;;;;;;9.79;100.00;99940.63;2615688;36;19957;-59
2022/12/29 10:06:28;;;;;;;;;;;;;;;9.82;100.00;99949.25;2616330;31;20103;-59
2022/12/29 10:09:01;;;;;;;;;;;;;;;9.72;100.00;99980.72;2615743;36;19950;-59
2022/12/29 10:11:36;;;;;;;;;;;;;;;9.79;100.00;99973.75;2615061;36;19938;-59
2022/12/29 10:14:15;;;;;;;;;;;;;;;9.79;100.00;99968.38;2614847;36;19946;-60
2022/12/29 10:16:49;;;;;;;;;;;;;;;9.76;100.00;99974.03;2615465;36;19947;-59
2022/12/29 10:19:31;;;;;;;;;;;;;;;9.74;100.00;99992.16;2614446;36;19976;-59
2022/12/29 10:22:10;;;;;;;;;;;;;;;9.65;100.00;99974.25;2614120;36;20460;-58
2022/12/29 10:24:41;;;;;;;;;;;;;;;9.71;100.00;99989.75;2611326;36;19957;-59
2022/12/29 10:27:13;;;;;;;;;;;;;;;9.83;100.00;99982.31;2612613;36;19977;-59
2022/12/29 10:29:45;;;;;;;;;;;;;;;9.85;100.00;99990.22;2615362;36;19946;-59
2022/12/29 10:32:19;;;;;;;;;;;;;;;9.77;100.00;99988.31;2613314;36;19950;-59
2022/12/29 10:34:49;;;;;;;;;;;;;;;9.75;100.00;99996.53;2614649;36;19950;-59
2022/12/29 10:37:26;;;;;;;;;;;;;;;9.83;100.00;100006.50;2612405;36;19950;-57
2022/12/29 10:39:55;;;;;;;;;;;;;;;9.87;100.00;99990.94;2614623;36;19954;-60
2022/12/29 10:42:27;;;;;;;;;;;;;;;9.73;100.00;100011.97;2613210;36;19962;-58
2022/12/29 10:44:56;;;;;;;;;;;;;;;9.78;100.00;100006.97;2614139;36;19974;-60
2022/12/29 10:47:27;;;;;;;;;;;;;;;9.89;100.00;100016.66;2614371;36;19946;-59
2022/12/29 10:49:55;;;;;;;;;;;;;;;9.96;100.00;100024.97;2615904;31;20818;-59
2022/12/29 10:52:27;;;;;;;;;;;;;;;9.95;100.00;100034.00;2614928;36;19962;-59
2022/12/29 10:54:58;;;;;;;;;;;;;;;9.98;100.00;100039.09;2614766;36;19950;-59
2022/12/29 10:57:28;;;;;;;;;;;;;;;10.11;100.00;100039.56;2615668;36;19950;-58
2022/12/29 10:59:56;;;;;;;;;;;;;;;10.14;100.00;100033.91;2614067;36;19965;-58
2022/12/29 11:02:48;;;;;;;;;;;;;;;10.08;100.00;100045.22;2614917;36;20360;-59
2022/12/29 11:05:23;;;;;;;;;;;;;;;10.07;100.00;100053.44;2613989;36;19955;-58
2022/12/29 11:08:11;;;;;;;;;;;;;;;10.14;100.00;100059.91;2613831;36;19947;-59
2022/12/29 11:10:43;;;;;;;;;;;;;;;10.13;100.00;100064.47;2613497;36;19947;-58
2022/12/29 11:13:15;;;;;;;;;;;;;;;10.26;100.00;100057.84;2615226;36;20029;-59
2022/12/29 11:15:46;;;;;;;;;;;;;;;10.35;100.00;100073.13;2614413;36;20077;-58
2022/12/29 11:18:22;;;;;;;;;;;;;;;10.31;100.00;100071.69;2614794;31;19950;-59
2022/12/29 11:20:51;;;;;;;;;;;;;;;10.38;100.00;100075.50;2615361;36;20320;-61
2022/12/29 11:23:35;;;;;;;;;;;;;;;10.18;100.00;100077.44;2612923;31;20444;-58
2022/12/29 11:26:10;;;;;;;;;;;;;;;10.24;100.00;100081.38;2614905;36;19954;-60
2022/12/29 11:28:39;;;;;;;;;;;;;;;10.29;100.00;100085.28;2614725;31;19954;-59
2022/12/29 11:31:08;;;;;;;;;;;;;;;10.28;100.00;100088.97;2611772;36;19950;-59
2022/12/29 11:33:37;;;;;;;;;;;;;;;10.22;100.00;100086.91;2613595;36;19966;-59
2022/12/29 11:36:08;;;;;;;;;;;;;;;10.43;100.00;100097.38;2612910;36;19954;-58
2022/12/29 11:38:39;;;;;;;;;;;;;;;10.61;100.00;100102.75;2613757;31;20655;-59
2022/12/29 11:41:08;;;;;;;;;;;;;;;10.72;100.00;100098.97;2612357;31;20157;-60
2022/12/29 11:43:39;;;;;;;;;;;;;;;10.78;100.00;100106.44;2612794;36;19958;-60
2022/12/29 11:46:08;;;;;;;;;;;;;;;10.89;100.00;100108.00;2615023;36;19950;-58
2022/12/29 11:48:40;;;;;;;;;;;;;;;10.87;100.00;100104.66;2614557;36;20522;-60
2022/12/29 11:51:09;;;;;;;;;;;;;;;10.93;100.00;100101.31;2612824;36;19947;-60
2022/12/29 11:53:44;;;;;;;;;;;;;;;10.93;100.00;100108.56;2615242;36;20400;-59
2022/12/29 11:56:15;;;;;;;;;;;;;;;10.87;100.00;100116.25;2616590;31;19951;-59
2022/12/29 11:58:43;;;;;;;;;;;;;;;10.76;100.00;100127.28;2615926;36;19951;-58
2022/12/29 12:01:16;;;;;;;;;;;;;;;10.70;100.00;100141.34;2616309;36;19939;-58
2022/12/29 12:03:48;;;;;;;;;;;;;;;10.91;100.00;100127.56;2615383;36;19950;-59
2022/12/29 12:06:19;;;;;;;;;;;;;;;10.93;100.00;100122.03;2613370;31;19946;-59
2022/12/29 12:08:55;;;;;;;;;;;;;;;10.78;100.00;100137.91;2614970;36;19954;-58
2022/12/29 12:11:25;;;;;;;;;;;;;;;10.89;100.00;100126.88;2614950;31;19951;-59
2022/12/29 12:13:59;;;;;;;;;;;;;;;10.86;100.00;100125.34;2615912;36;19946;-58
2022/12/29 12:16:30;;;;;;;;;;;;;;;10.75;100.00;100124.72;2616592;36;19973;-57
2022/12/29 12:19:03;;;;;;;;;;;;;;;10.72;100.00;100128.59;2615660;36;19950;-59
2022/12/29 12:21:34;;;;;;;;;;;;;;;10.63;100.00;100135.75;2616836;36;20439;-60
2022/12/29 12:24:14;;;;;;;;;;;;;;;10.84;100.00;100148.03;2616516;36;19953;-59
2022/12/29 12:26:50;;;;;;;;;;;;;;;10.93;100.00;100130.09;2616384;31;19951;-59
2022/12/29 12:29:21;;;;;;;;;;;;;;;10.96;100.00;100143.25;2616350;36;19950;-59
2022/12/29 12:31:53;;;;;;;;;;;;;;;10.97;100.00;100145.78;2615594;36;20558;-58
2022/12/29 12:34:24;;;;;;;;;;;;;;;10.87;100.00;100156.63;2615888;36;20511;-59
2022/12/29 12:37:09;;;;;;;;;;;;;;;10.91;100.00;100156.31;2616376;36;19947;-58
2022/12/29 12:39:44;;;;;;;;;;;;;;;10.90;100.00;100162.72;2615831;36;19950;-59
2022/12/29 12:42:21;;;;;;;;;;;;;;;10.89;100.00;100169.09;2615690;36;19951;-59
2022/12/29 12:45:05;;;;;;;;;;;;;;;10.95;100.00;100172.00;2617044;31;20360;-59
2022/12/29 12:50:29;;;;;;;20.08;2.85;;;;;;;10.61;100.00;100171.88;2618164;36;20453;-59
2022/12/29 12:53:20;;;;;;;16.00;2.70;;;;;;;10.33;100.00;100169.19;2619153;36;20423;-59
2022/12/29 12:56:05;;;;;;;13.57;2.25;;;;;;;10.36;100.00;100177.00;2619519;36;20037;-59
2022/12/29 12:58:42;;;;;;;16.77;2.22;;;;;;;10.58;100.00;100182.94;2619570;36;20030;-58
2022/12/29 13:01:26;;;;;;;10.10;2.72;;;;;;;10.51;100.00;100175.50;2619449;36;20034;-58
2022/12/29 13:04:15;;;;;;;5.70;1.73;;;;;;;10.56;100.00;100182.28;2616594;36;20030;-58
2022/12/29 13:06:53;;;;;;;6.07;1.75;;;;;;;10.43;100.00;100183.47;2618606;36;20477;-59
2022/12/29 13:09:48;;;;;;;10.30;2.38;;;;;;;10.58;100.00;100191.03;2620641;36;20442;-59
2022/12/29 13:12:26;;;;;;;17.17;2.00;;;;;;;10.42;100.00;100199.75;2620664;31;20419;-59
2022/12/29 13:15:06;;;;;;;7.90;2.25;;;;;;;10.33;100.00;100194.31;2620752;36;20033;-59
2022/12/29 13:17:42;;;;;;;10.73;1.95;;;;;;;10.29;100.00;100197.38;2620469;36;20453;-59
2022/12/29 13:20:22;;;;;;;11.38;2.53;;;;;;;10.28;100.00;100196.56;2620143;36;20438;-59
2022/12/29 13:23:03;;;;;;;12.38;2.10;;;;;;;10.37;100.00;100202.06;2620523;31;20065;-60
2022/12/29 13:25:40;;;;;;;10.23;2.15;;;;;;;10.32;100.00;100197.97;2620024;36;20573;-59
2022/12/29 13:28:18;;;;;;;19.05;2.85;;;;;;;10.28;100.00;100206.47;2620110;36;20038;-58
2022/12/29 13:30:56;;;;;;;7.05;2.10;;;;;;;10.20;100.00;100203.69;2620479;31;20037;-59
2022/12/29 13:33:31;;;;;;;11.40;2.30;;;;;;;10.16;100.00;100209.38;2619165;36;20535;-59